createdAt,value
2023-05-19T00:00:07.767Z,100439.53
2023-05-19T00:02:38.361Z,100431.94
2023-05-19T00:05:06.670Z,100436.97
2023-05-19T00:07:38.718Z,100432.09
2023-05-19T00:10:07.207Z,100435.97
2023-05-19T00:12:35.637Z,100427.69
2023-05-19T00:15:03.547Z,100430.84
2023-05-19T00:17:30.894Z,100439.28
2023-05-19T00:19:58.100Z,100435.56
2023-05-19T00:22:25.291Z,100436.69
2023-05-19T00:24:53.939Z,100437.56
2023-05-19T00:27:21.126Z,100434.56
2023-05-19T00:29:48.347Z,100439.41
2023-05-19T00:32:15.804Z,100434.56
2023-05-19T00:34:43.126Z,100432.53
2023-05-19T00:37:10.350Z,100429.00
2023-05-19T00:39:37.771Z,100434.97
2023-05-19T00:42:06.665Z,100430.13
2023-05-19T00:44:33.965Z,100424.69
2023-05-19T00:47:01.356Z,100424.69
2023-05-19T00:49:28.692Z,100426.53
2023-05-19T00:51:56.168Z,100419.81
2023-05-19T00:54:23.899Z,100416.28
2023-05-19T00:56:51.136Z,100422.84
2023-05-19T00:59:19.830Z,100415.84
2023-05-19T01:01:47.397Z,100416.41
2023-05-19T01:04:14.658Z,100422.81
2023-05-19T01:06:42.141Z,100424.38
2023-05-19T01:09:09.378Z,100411.38
2023-05-19T01:11:36.639Z,100404.53
2023-05-19T01:14:03.945Z,100406.66
2023-05-19T01:16:40.233Z,100405.53
2023-05-19T01:19:19.228Z,100398.09
2023-05-19T01:22:13.635Z,100404.94
2023-05-19T01:25:09.729Z,100406.25
2023-05-19T01:27:53.945Z,100399.94
2023-05-19T01:30:30.481Z,100404.94
2023-05-19T01:33:01.121Z,100404.22
2023-05-19T01:35:30.578Z,100406.94
2023-05-19T01:38:00.706Z,100403.06
2023-05-19T01:40:30.054Z,100402.06
2023-05-19T01:42:59.317Z,100403.63
2023-05-19T01:45:29.987Z,100403.63
2023-05-19T01:48:01.046Z,100405.22
2023-05-19T01:50:28.777Z,100402.63
2023-05-19T01:52:56.088Z,100397.91
2023-05-19T01:55:23.820Z,100404.03
2023-05-19T01:58:00.833Z,100408.88
2023-05-19T02:00:42.003Z,100406.44
2023-05-19T02:03:21.029Z,100414.16
2023-05-19T02:05:55.542Z,100409.13
2023-05-19T02:08:29.274Z,100408.41
2023-05-19T02:11:02.542Z,100417.38
2023-05-19T02:13:33.970Z,100416.06
2023-05-19T02:16:05.687Z,100416.72
2023-05-19T02:18:33.196Z,100423.28
2023-05-19T02:21:00.399Z,100421.13
2023-05-19T02:23:27.622Z,100410.44
2023-05-19T02:25:54.846Z,100406.59
2023-05-19T02:28:22.108Z,100401.03
2023-05-19T02:30:49.267Z,100407.03
2023-05-19T02:33:17.846Z,100408.03
2023-05-19T02:35:45.052Z,100417.72
2023-05-19T02:38:12.304Z,100412.72
2023-05-19T02:40:39.617Z,100405.19
2023-05-19T02:43:07.092Z,100413.00
2023-05-19T02:45:34.855Z,100412.84
2023-05-19T02:48:02.171Z,100410.56
2023-05-19T02:50:31.086Z,100405.97
2023-05-19T02:52:58.474Z,100407.09
2023-05-19T02:55:25.826Z,100406.66
2023-05-19T02:57:53.085Z,100402.13
2023-05-19T03:00:20.508Z,100405.53
2023-05-19T03:02:47.926Z,100391.66
2023-05-19T03:05:15.299Z,100395.66
2023-05-19T03:07:43.940Z,100403.31
2023-05-19T03:10:11.277Z,100396.59
2023-05-19T03:12:38.457Z,100406.97
2023-05-19T03:15:06.797Z,100397.97
2023-05-19T03:17:34.071Z,100399.34
2023-05-19T03:20:01.551Z,100388.81
2023-05-19T03:22:28.783Z,100401.03
2023-05-19T03:24:57.468Z,100398.06
2023-05-19T03:27:24.776Z,100394.75
2023-05-19T03:29:51.978Z,100392.16
2023-05-19T03:32:19.791Z,100398.00
2023-05-19T03:34:47.195Z,100392.72
2023-05-19T03:37:15.178Z,100394.72
2023-05-19T03:39:42.478Z,100392.38
2023-05-19T03:42:11.266Z,100394.03
2023-05-19T03:44:38.481Z,100401.56
2023-05-19T03:47:06.228Z,100405.63
2023-05-19T03:49:56.028Z,100412.81
2023-05-19T03:52:41.694Z,100405.84
2023-05-19T03:55:22.388Z,100406.78
2023-05-19T03:57:51.115Z,100412.50
2023-05-19T04:00:18.682Z,100407.09
2023-05-19T04:02:46.029Z,100409.25
2023-05-19T04:05:14.138Z,100421.53
2023-05-19T04:07:41.403Z,100412.28
2023-05-19T04:10:09.107Z,100414.38
2023-05-19T04:12:36.309Z,100426.50
2023-05-19T04:15:05.808Z,100421.81
2023-05-19T04:17:33.050Z,100418.13
2023-05-19T04:20:00.344Z,100416.75
2023-05-19T04:22:29.007Z,100413.66
2023-05-19T04:24:56.170Z,100414.81
2023-05-19T04:27:24.703Z,100412.72
2023-05-19T04:29:51.920Z,100416.41
2023-05-19T04:32:20.685Z,100412.00
2023-05-19T04:34:48.101Z,100415.91
2023-05-19T04:37:21.973Z,100418.06
2023-05-19T04:39:50.679Z,100419.94
2023-05-19T04:42:18.689Z,100426.50
2023-05-19T04:44:47.602Z,100423.41
2023-05-19T04:47:15.434Z,100423.84
2023-05-19T04:49:44.356Z,100426.75
2023-05-19T04:52:11.579Z,100419.53
2023-05-19T04:54:40.189Z,100423.41
2023-05-19T04:57:07.531Z,100426.53
2023-05-19T04:59:38.340Z,100427.75
2023-05-19T05:02:08.030Z,100427.31
2023-05-19T05:04:37.404Z,100434.78
2023-05-19T05:07:06.080Z,100431.22
2023-05-19T05:09:34.266Z,100424.25
2023-05-19T05:12:03.402Z,100418.41
2023-05-19T05:14:31.518Z,100422.69
2023-05-19T05:16:59.259Z,100431.69
2023-05-19T05:19:27.274Z,100428.28
2023-05-19T05:21:55.949Z,100423.13
2023-05-19T05:24:25.302Z,100435.56
2023-05-19T05:26:56.326Z,100427.53
2023-05-19T05:29:23.764Z,100431.31
2023-05-19T05:31:51.253Z,100431.16
2023-05-19T05:34:18.628Z,100431.28
2023-05-19T05:36:45.852Z,100432.53
2023-05-19T05:39:13.235Z,100431.91
2023-05-19T05:41:43.079Z,100435.78
2023-05-19T05:44:12.249Z,100439.09
2023-05-19T05:46:42.406Z,100443.03
2023-05-19T05:49:10.750Z,100435.53
2023-05-19T05:51:40.754Z,100439.75
2023-05-19T05:54:12.229Z,100436.66
2023-05-19T05:56:46.385Z,100437.44
2023-05-19T05:59:13.795Z,100432.75
2023-05-19T06:01:41.894Z,100435.25
2023-05-19T06:04:10.025Z,100441.06
2023-05-19T06:06:37.425Z,100431.78
2023-05-19T06:09:05.871Z,100437.84
2023-05-19T06:11:33.154Z,100431.81
2023-05-19T06:14:02.020Z,100426.88
2023-05-19T06:16:46.863Z,100422.31
2023-05-19T06:19:16.138Z,100418.91
2023-05-19T06:21:44.216Z,100423.25
2023-05-19T06:24:11.945Z,100425.38
2023-05-19T06:26:39.160Z,100424.91
2023-05-19T06:29:07.767Z,100429.34
2023-05-19T06:31:35.109Z,100424.41
2023-05-19T06:34:14.451Z,100423.03
2023-05-19T06:36:41.697Z,100419.94
2023-05-19T06:39:09.904Z,100424.88
2023-05-19T06:41:38.207Z,100420.41
2023-05-19T06:44:09.117Z,100422.97
2023-05-19T06:46:36.445Z,100422.06
2023-05-19T06:49:04.733Z,100415.19
2023-05-19T06:51:37.070Z,100415.13
2023-05-19T06:54:04.806Z,100419.38
2023-05-19T06:56:32.137Z,100417.38
2023-05-19T06:58:59.308Z,100413.78
2023-05-19T07:01:33.862Z,100414.72
2023-05-19T07:04:01.368Z,100409.53
2023-05-19T07:06:29.107Z,100412.50
2023-05-19T07:08:56.335Z,100409.03
2023-05-19T07:11:24.556Z,100409.34
2023-05-19T07:13:51.838Z,100406.22
2023-05-19T07:16:24.816Z,100402.03
2023-05-19T07:18:53.477Z,100403.38
2023-05-19T07:21:20.823Z,100399.56
2023-05-19T07:23:48.966Z,100404.97
2023-05-19T07:26:16.233Z,100388.03
2023-05-19T07:28:43.471Z,100393.25
2023-05-19T07:31:10.676Z,100391.53
2023-05-19T07:33:37.865Z,100391.25
2023-05-19T07:36:06.553Z,100386.78
2023-05-19T07:38:33.781Z,100384.63
2023-05-19T07:41:01.141Z,100387.63
2023-05-19T07:43:28.622Z,100380.47
2023-05-19T07:45:55.968Z,100386.63
2023-05-19T07:48:23.410Z,100379.59
2023-05-19T07:50:50.728Z,100380.00
2023-05-19T07:53:19.778Z,100380.72
2023-05-19T07:55:46.982Z,100378.66
2023-05-19T07:58:14.586Z,100369.69
2023-05-19T08:00:41.996Z,100369.69
2023-05-19T08:03:09.413Z,100372.69
2023-05-19T08:05:37.026Z,100368.47
2023-05-19T08:08:04.565Z,100371.13
2023-05-19T08:10:33.340Z,100369.41
2023-05-19T08:13:00.745Z,100360.81
2023-05-19T08:15:28.416Z,100371.28
2023-05-19T08:17:55.738Z,100370.53
2023-05-19T08:20:22.997Z,100367.69
2023-05-19T08:22:50.334Z,100354.41
2023-05-19T08:25:17.637Z,100351.38
2023-05-19T08:27:46.212Z,100354.06
2023-05-19T08:30:13.576Z,100352.94
2023-05-19T08:32:40.827Z,100348.91
2023-05-19T08:35:09.226Z,100343.19
2023-05-19T08:37:36.416Z,100341.66
2023-05-19T08:40:03.986Z,100338.94
2023-05-19T08:42:31.395Z,100336.63
2023-05-19T08:45:00.363Z,100337.53
2023-05-19T08:47:28.460Z,100343.81
2023-05-19T08:50:03.900Z,100342.63
2023-05-19T08:52:37.127Z,100330.59
2023-05-19T08:55:08.756Z,100333.75
2023-05-19T08:57:36.185Z,100339.66
2023-05-19T09:00:06.143Z,100331.00
2023-05-19T09:02:33.559Z,100327.19
2023-05-19T09:05:01.638Z,100313.38
2023-05-19T09:07:30.958Z,100322.25
2023-05-19T09:09:58.191Z,100313.59
2023-05-19T09:12:25.435Z,100312.75
2023-05-19T09:14:53.048Z,100317.44
2023-05-19T09:17:21.718Z,100314.31
2023-05-19T09:19:48.949Z,100311.47
2023-05-19T09:22:16.793Z,100306.78
2023-05-19T09:24:44.545Z,100300.44
2023-05-19T09:27:15.189Z,100296.03
2023-05-19T09:29:43.134Z,100310.88
2023-05-19T09:32:10.368Z,100296.63
2023-05-19T09:34:41.792Z,100295.50
2023-05-19T09:37:09.053Z,100301.47
2023-05-19T09:39:36.373Z,100289.06
2023-05-19T09:42:06.053Z,100291.00
2023-05-19T09:44:35.392Z,100291.38
2023-05-19T09:47:03.303Z,100288.69
2023-05-19T09:49:30.675Z,100279.16
2023-05-19T09:52:01.972Z,100277.81
2023-05-19T09:54:29.976Z,100277.00
2023-05-19T09:56:57.934Z,100288.78
2023-05-19T09:59:25.573Z,100276.97
2023-05-19T10:01:55.033Z,100274.69
2023-05-19T10:04:23.640Z,100272.50
2023-05-19T10:06:51.107Z,100277.28
2023-05-19T10:09:22.252Z,100266.44
2023-05-19T10:11:51.422Z,100265.25
2023-05-19T10:14:20.003Z,100265.09
2023-05-19T10:16:50.509Z,100260.31
2023-05-19T10:19:21.475Z,100269.22
2023-05-19T10:21:49.139Z,100267.81
2023-05-19T10:24:16.619Z,100269.47
2023-05-19T10:26:49.763Z,100276.59
2023-05-19T10:29:20.900Z,100260.66
2023-05-19T10:31:51.394Z,100263.41
2023-05-19T10:34:36.393Z,100258.09
2023-05-19T10:37:14.246Z,100250.22
2023-05-19T10:39:43.305Z,100252.63
2023-05-19T10:42:16.204Z,100244.69
2023-05-19T10:44:58.391Z,100240.72
2023-05-19T10:47:25.897Z,100242.84
2023-05-19T10:49:53.557Z,100242.31
2023-05-19T10:52:21.912Z,100236.31
2023-05-19T10:54:49.209Z,100238.19
2023-05-19T10:57:20.402Z,100227.31
2023-05-19T10:59:47.659Z,100236.53
2023-05-19T11:02:39.761Z,100238.13
2023-05-19T11:05:08.501Z,100228.47
2023-05-19T11:07:36.205Z,100243.91
2023-05-19T11:10:07.226Z,100243.50
2023-05-19T11:12:52.057Z,100231.56
2023-05-19T11:15:26.039Z,100224.94
2023-05-19T11:17:53.889Z,100226.03
2023-05-19T11:20:22.938Z,100235.56
2023-05-19T11:23:07.599Z,100233.56
2023-05-19T11:25:45.324Z,100224.38
2023-05-19T11:28:16.776Z,100226.25
2023-05-19T11:30:46.723Z,100228.56
2023-05-19T11:33:14.160Z,100223.97
2023-05-19T11:35:43.433Z,100226.84
2023-05-19T11:38:11.161Z,100211.69
2023-05-19T11:40:38.977Z,100216.03
2023-05-19T11:43:06.217Z,100217.38
2023-05-19T11:45:35.563Z,100212.66
2023-05-19T11:48:03.775Z,100222.16
2023-05-19T11:50:31.398Z,100215.22
2023-05-19T11:53:00.875Z,100216.88
2023-05-19T11:55:28.845Z,100209.66
2023-05-19T12:00:30.739Z,100204.91
2023-05-19T12:02:59.483Z,100205.91
2023-05-19T12:05:27.293Z,100212.81
2023-05-19T12:07:54.856Z,100208.16
2023-05-19T12:10:23.402Z,100197.59
2023-05-19T12:12:50.832Z,100205.13
2023-05-19T12:15:19.312Z,100205.66
2023-05-19T12:17:49.498Z,100202.44
2023-05-19T12:20:19.007Z,100200.09
2023-05-19T12:22:47.376Z,100198.22
2023-05-19T12:25:15.514Z,100189.69
2023-05-19T12:27:43.478Z,100198.09
2023-05-19T12:30:11.938Z,100197.41
2023-05-19T12:32:39.276Z,100197.88
2023-05-19T12:35:07.437Z,100193.22
2023-05-19T12:37:36.966Z,100189.94
2023-05-19T12:40:04.957Z,100196.88
2023-05-19T12:42:32.150Z,100197.31
2023-05-19T12:45:01.506Z,100191.16
2023-05-19T12:47:31.876Z,100193.34
2023-05-19T12:50:02.599Z,100186.06
2023-05-19T12:52:32.178Z,100174.06
2023-05-19T12:55:01.955Z,100173.25
2023-05-19T12:57:29.282Z,100166.75
2023-05-19T13:00:00.670Z,100180.44
2023-05-19T13:02:27.813Z,100177.19
2023-05-19T13:04:55.010Z,100170.47
2023-05-19T13:07:22.324Z,100162.44
2023-05-19T13:09:49.501Z,100176.75
2023-05-19T13:12:18.118Z,100165.56
2023-05-19T13:14:45.525Z,100158.50
2023-05-19T13:17:12.863Z,100170.97
2023-05-19T13:19:40.117Z,100168.06
2023-05-19T13:22:07.375Z,100169.53
2023-05-19T13:24:34.616Z,100166.09
2023-05-19T13:27:01.842Z,100159.41
2023-05-19T13:29:30.454Z,100157.94
2023-05-19T13:32:00.525Z,100170.41
2023-05-19T13:34:28.508Z,100160.91
2023-05-19T13:36:55.729Z,100156.31
2023-05-19T13:39:23.051Z,100159.47
2023-05-19T13:41:50.239Z,100158.88
2023-05-19T13:44:17.481Z,100153.75
2023-05-19T13:46:47.955Z,100144.50
2023-05-19T13:49:16.450Z,100161.28
2023-05-19T13:51:43.699Z,100150.09
2023-05-19T13:54:10.923Z,100150.53
2023-05-19T13:56:38.151Z,100165.03
2023-05-19T13:59:05.434Z,100153.59
2023-05-19T14:01:32.722Z,100147.81
2023-05-19T14:04:01.523Z,100145.28
2023-05-19T14:06:28.861Z,100147.72
2023-05-19T14:08:56.082Z,100145.13
2023-05-19T14:11:23.404Z,100146.72
2023-05-19T14:13:52.732Z,100153.03
2023-05-19T14:16:20.553Z,100144.13
2023-05-19T14:18:47.913Z,100147.00
2023-05-19T14:21:16.501Z,100157.53
2023-05-19T14:23:44.036Z,100148.34
2023-05-19T14:26:11.247Z,100152.38
2023-05-19T14:28:38.509Z,100153.16
2023-05-19T14:31:05.768Z,100147.06
2023-05-19T14:33:35.646Z,100153.72
2023-05-19T14:36:03.462Z,100156.00
2023-05-19T14:38:32.037Z,100155.75
2023-05-19T14:40:59.293Z,100164.97
2023-05-19T14:43:26.493Z,100152.13
2023-05-19T14:45:53.804Z,100153.72
2023-05-19T14:48:21.111Z,100154.91
2023-05-19T14:50:48.467Z,100162.38
2023-05-19T14:53:15.919Z,100154.38
2023-05-19T14:55:44.528Z,100159.25
2023-05-19T14:58:26.882Z,100156.63
2023-05-19T15:00:57.629Z,100148.69
2023-05-19T15:03:25.032Z,100138.72
2023-05-19T15:05:52.405Z,100152.25
2023-05-19T15:08:19.642Z,100149.91
2023-05-19T15:10:49.962Z,100147.44
2023-05-19T15:13:17.198Z,100138.63
2023-05-19T15:15:44.481Z,100139.84
2023-05-19T15:18:11.776Z,100139.31
2023-05-19T15:20:39.088Z,100144.53
2023-05-19T15:23:06.298Z,100137.06
2023-05-19T15:25:33.792Z,100126.59
2023-05-19T15:28:02.441Z,100124.38
2023-05-19T15:30:29.743Z,100134.88
2023-05-19T15:32:56.998Z,100139.22
2023-05-19T15:35:24.220Z,100130.50
2023-05-19T15:37:51.562Z,100156.38
2023-05-19T15:40:19.052Z,100128.50
2023-05-19T15:42:46.258Z,100134.66
2023-05-19T15:45:14.792Z,100142.28
2023-05-19T15:47:42.038Z,100156.66
2023-05-19T15:50:09.906Z,100150.00
2023-05-19T15:52:37.214Z,100148.41
2023-05-19T15:55:05.285Z,100145.56
2023-05-19T15:57:32.518Z,100143.56
2023-05-19T15:59:59.751Z,100143.31
2023-05-19T16:02:28.455Z,100132.00
2023-05-19T16:04:55.704Z,100135.97
2023-05-19T16:07:23.000Z,100131.88
2023-05-19T16:09:50.208Z,100130.66
2023-05-19T16:12:17.449Z,100131.22
2023-05-19T16:14:44.619Z,100125.78
2023-05-19T16:17:11.869Z,100135.00
2023-05-19T16:19:40.425Z,100123.91
2023-05-19T16:22:07.661Z,100120.94
2023-05-19T16:24:34.887Z,100124.94
2023-05-19T16:27:02.106Z,100116.22
2023-05-19T16:29:29.307Z,100119.41
2023-05-19T16:31:56.526Z,100110.66
2023-05-19T16:34:23.885Z,100121.50
2023-05-19T16:36:52.408Z,100107.81
2023-05-19T16:39:19.624Z,100121.44
2023-05-19T16:41:46.842Z,100109.06
2023-05-19T16:44:14.136Z,100116.13
2023-05-19T16:46:41.347Z,100108.03
2023-05-19T16:49:08.521Z,100117.56
2023-05-19T16:51:35.706Z,100106.88
2023-05-19T16:54:04.249Z,100101.94
2023-05-19T16:56:31.466Z,100102.47
2023-05-19T16:58:58.925Z,100104.66
2023-05-19T17:01:26.194Z,100106.59
2023-05-19T17:03:53.470Z,100101.91
2023-05-19T17:06:20.681Z,100108.28
2023-05-19T17:08:47.906Z,100102.50
2023-05-19T17:11:16.439Z,100106.31
2023-05-19T17:13:43.710Z,100107.50
2023-05-19T17:16:10.924Z,100096.72
2023-05-19T17:18:38.289Z,100094.22
2023-05-19T17:21:05.612Z,100099.06
2023-05-19T17:23:32.915Z,100103.56
2023-05-19T17:26:00.602Z,100094.78
2023-05-19T17:28:29.164Z,100105.66
2023-05-19T17:30:56.453Z,100107.19
2023-05-19T17:33:23.673Z,100110.19
2023-05-19T17:35:50.917Z,100101.69
2023-05-19T17:38:18.139Z,100109.97
2023-05-19T17:40:45.375Z,100108.31
2023-05-19T17:43:12.583Z,100112.38
2023-05-19T17:45:41.144Z,100098.13
2023-05-19T17:48:08.536Z,100100.25
2023-05-19T17:50:35.856Z,100095.84
2023-05-19T17:53:03.739Z,100102.22
2023-05-19T17:55:31.712Z,100100.94
2023-05-19T17:57:59.559Z,100096.72
2023-05-19T18:00:27.286Z,100100.97
2023-05-19T18:02:56.612Z,100103.28
2023-05-19T18:05:24.729Z,100110.53
2023-05-19T18:07:53.925Z,100104.59
2023-05-19T18:10:24.729Z,100113.25
2023-05-19T18:12:51.928Z,100110.09
2023-05-19T18:15:19.143Z,100108.81
2023-05-19T18:17:46.432Z,100107.34
2023-05-19T18:20:15.204Z,100103.31
2023-05-19T18:22:42.447Z,100102.00
2023-05-19T18:25:10.001Z,100105.34
2023-05-19T18:27:37.228Z,100097.94
2023-05-19T18:30:05.558Z,100107.22
2023-05-19T18:32:33.624Z,100097.69
2023-05-19T18:35:00.910Z,100096.81
2023-05-19T18:37:29.432Z,100103.59
2023-05-19T18:39:56.700Z,100096.31
2023-05-19T18:42:24.122Z,100104.16
2023-05-19T18:44:51.350Z,100099.91
2023-05-19T18:47:18.680Z,100096.28
2023-05-19T18:49:45.874Z,100093.06
2023-05-19T18:52:13.100Z,100090.69
2023-05-19T18:54:41.659Z,100094.03
2023-05-19T18:57:08.943Z,100108.75
2023-05-19T18:59:36.162Z,100100.56
2023-05-19T19:02:03.399Z,100088.03
2023-05-19T19:04:30.639Z,100103.03
2023-05-19T19:06:57.853Z,100099.78
2023-05-19T19:09:25.063Z,100102.03
2023-05-19T19:11:53.640Z,100106.28
2023-05-19T19:14:20.873Z,100106.63
2023-05-19T19:16:48.166Z,100111.06
2023-05-19T19:19:15.549Z,100119.94
2023-05-19T19:21:43.048Z,100110.78
2023-05-19T19:24:10.238Z,100109.28
2023-05-19T19:26:37.414Z,100106.47
2023-05-19T19:29:05.944Z,100115.97
2023-05-19T19:31:33.336Z,100117.81
2023-05-19T19:34:00.609Z,100117.31
2023-05-19T19:36:27.828Z,100116.88
2023-05-19T19:38:55.075Z,100125.34
2023-05-19T19:41:22.267Z,100119.56
2023-05-19T19:43:49.465Z,100128.03
2023-05-19T19:46:18.037Z,100123.88
2023-05-19T19:48:45.288Z,100127.28
2023-05-19T19:51:12.541Z,100128.16
2023-05-19T19:53:39.732Z,100127.88
2023-05-19T19:56:06.956Z,100126.13
2023-05-19T19:58:34.214Z,100129.66
2023-05-19T20:01:03.286Z,100126.63
2023-05-19T20:03:32.000Z,100126.72
2023-05-19T20:05:59.232Z,100128.56
2023-05-19T20:08:27.085Z,100121.88
2023-05-19T20:10:54.330Z,100125.28
2023-05-19T20:13:21.581Z,100126.72
2023-05-19T20:15:48.831Z,100130.69
2023-05-19T20:18:16.129Z,100129.63
2023-05-19T20:20:44.801Z,100134.00
2023-05-19T20:23:12.004Z,100132.78
2023-05-19T20:25:44.592Z,100130.50
2023-05-19T20:28:17.546Z,100127.94
2023-05-19T20:30:44.812Z,100139.72
2023-05-19T20:33:12.078Z,100142.81
2023-05-19T20:35:39.481Z,100142.88
2023-05-19T20:38:08.157Z,100143.16
2023-05-19T20:40:37.161Z,100148.00
2023-05-19T20:43:04.353Z,100142.34
2023-05-19T20:45:31.780Z,100143.88
2023-05-19T20:47:59.189Z,100147.41
2023-05-19T20:50:26.470Z,100145.03
2023-05-19T20:52:53.715Z,100143.34
2023-05-19T20:55:22.334Z,100142.28
2023-05-19T20:57:49.591Z,100139.56
2023-05-19T21:00:17.414Z,100145.22
2023-05-19T21:02:44.838Z,100150.84
2023-05-19T21:05:12.223Z,100139.78
2023-05-19T21:07:39.483Z,100139.78
2023-05-19T21:10:07.731Z,100138.44
2023-05-19T21:12:36.348Z,100135.22
2023-05-19T21:15:04.050Z,100144.13
2023-05-19T21:17:31.308Z,100138.19
2023-05-19T21:19:58.601Z,100134.59
2023-05-19T21:22:26.094Z,100135.47
2023-05-19T21:24:53.378Z,100131.56
2023-05-19T21:27:20.681Z,100135.47
2023-05-19T21:29:52.493Z,100134.28
2023-05-19T21:32:19.584Z,100140.09
2023-05-19T21:34:46.731Z,100141.50
2023-05-19T21:37:13.937Z,100133.28
2023-05-19T21:39:41.128Z,100137.94
2023-05-19T21:42:08.347Z,100134.88
2023-05-19T21:44:35.568Z,100127.19
2023-05-19T21:47:04.338Z,100128.75
2023-05-19T21:49:31.639Z,100132.19
2023-05-19T21:51:58.950Z,100138.16
2023-05-19T21:54:26.290Z,100118.88
2023-05-19T21:56:53.553Z,100129.09
2023-05-19T21:59:20.746Z,100138.00
2023-05-19T22:01:48.024Z,100143.47
2023-05-19T22:04:18.538Z,100133.78
2023-05-19T22:06:46.016Z,100129.13
2023-05-19T22:09:13.418Z,100128.81
2023-05-19T22:11:40.602Z,100132.09
2023-05-19T22:14:07.924Z,100130.09
2023-05-19T22:16:35.201Z,100128.56
2023-05-19T22:19:02.544Z,100123.28
2023-05-19T22:21:31.209Z,100127.72
2023-05-19T22:23:58.472Z,100127.56
2023-05-19T22:26:25.656Z,100125.16
2023-05-19T22:28:52.850Z,100129.78
2023-05-19T22:31:20.101Z,100121.75
2023-05-19T22:33:47.447Z,100131.63
2023-05-19T22:36:14.629Z,100121.59
2023-05-19T22:38:43.232Z,100126.22
2023-05-19T22:41:10.496Z,100128.97
2023-05-19T22:43:37.694Z,100123.38
2023-05-19T22:46:05.198Z,100123.16
2023-05-19T22:48:32.453Z,100126.59
2023-05-19T22:50:59.672Z,100118.94
2023-05-19T22:53:26.879Z,100110.38
2023-05-19T22:55:55.405Z,100118.56
2023-05-19T22:58:22.619Z,100120.97
2023-05-19T23:00:49.921Z,100118.25
2023-05-19T23:03:17.141Z,100122.50
2023-05-19T23:05:44.338Z,100111.25
2023-05-19T23:08:11.550Z,100119.44
2023-05-19T23:10:38.798Z,100126.09
2023-05-19T23:13:07.407Z,100123.00
2023-05-19T23:15:34.903Z,100113.97
2023-05-19T23:18:03.715Z,100113.44
2023-05-19T23:20:30.927Z,100112.06
2023-05-19T23:22:58.141Z,100113.66
2023-05-19T23:25:25.368Z,100106.47
2023-05-19T23:27:52.645Z,100101.00
2023-05-19T23:30:21.214Z,100115.84
2023-05-19T23:32:48.431Z,100110.72
2023-05-19T23:35:17.184Z,100102.19
2023-05-19T23:37:44.385Z,100104.25
2023-05-19T23:40:12.370Z,100094.19
2023-05-19T23:42:39.582Z,100098.81
2023-05-19T23:45:08.126Z,100099.84
2023-05-19T23:47:36.851Z,100100.00
2023-05-19T23:50:04.743Z,100098.47
2023-05-19T23:52:31.937Z,100100.69
2023-05-19T23:54:59.349Z,100098.47
2023-05-19T23:57:26.544Z,100095.06
2023-05-19T23:59:53.721Z,100093.53
